Alta Vista, Iowa
Current Conditions -  °F | °C
As of 5:55 AM on Friday 21 Nov 2014 (Local Time) from KCCY Reporting Station
Clear Clear  
Wind Chill: -6°   Ceiling: Unl
Heat Index:   Visibility: 10mi
Dew Point:   Wind: 6mph
Humidity: 78%   Direction: 150°SSE
Pressure: 30.3"   Gusts: NA
Location:  43.2°N, 92.42°W
Report Text: KCCY 211155Z AUTO 15005KT 10SM CLR M15/M18 A3030 RMK AO2
Loading
Personal Weather Stations






























Interactive Weather Map New forecast layout! Learn more

10-Day Weather Forecast

Advertisements
Track Severe Weather on mobile